sensor_id;sensor_type;location;lat;lon;timestamp;P1;durP1;ratioP1;P2;durP2;ratioP2
7759;SDS011;3924;48.830;9.262;2022-08-20T00:00:55;1.53;;;0.87;;
7759;SDS011;3924;48.830;9.262;2022-08-20T00:03:29;2.60;;;0.93;;
7759;SDS011;3924;48.830;9.262;2022-08-20T00:06:09;0.83;;;0.83;;
7759;SDS011;3924;48.830;9.262;2022-08-20T00:08:38;0.60;;;0.60;;
7759;SDS011;3924;48.830;9.262;2022-08-20T00:11:06;2.43;;;0.90;;
7759;SDS011;3924;48.830;9.262;2022-08-20T00:13:40;0.87;;;0.87;;
7759;SDS011;3924;48.830;9.262;2022-08-20T00:16:09;0.97;;;0.97;;
7759;SDS011;3924;48.830;9.262;2022-08-20T00:18:37;0.90;;;0.90;;
7759;SDS011;3924;48.830;9.262;2022-08-20T00:21:05;1.13;;;0.80;;
7759;SDS011;3924;48.830;9.262;2022-08-20T00:23:36;2.20;;;0.80;;
7759;SDS011;3924;48.830;9.262;2022-08-20T00:26:04;1.90;;;0.90;;
7759;SDS011;3924;48.830;9.262;2022-08-20T00:28:32;0.87;;;0.87;;
7759;SDS011;3924;48.830;9.262;2022-08-20T00:31:02;7.10;;;0.90;;
7759;SDS011;3924;48.830;9.262;2022-08-20T00:33:30;0.90;;;0.90;;
7759;SDS011;3924;48.830;9.262;2022-08-20T00:35:59;1.70;;;0.80;;
7759;SDS011;3924;48.830;9.262;2022-08-20T00:38:35;4.27;;;0.80;;
7759;SDS011;3924;48.830;9.262;2022-08-20T00:41:13;0.80;;;0.80;;
7759;SDS011;3924;48.830;9.262;2022-08-20T00:44:05;0.70;;;0.70;;
7759;SDS011;3924;48.830;9.262;2022-08-20T00:46:35;1.07;;;0.80;;
7759;SDS011;3924;48.830;9.262;2022-08-20T00:49:04;4.83;;;0.80;;
7759;SDS011;3924;48.830;9.262;2022-08-20T00:54:16;1.43;;;0.70;;
7759;SDS011;3924;48.830;9.262;2022-08-20T00:56:54;0.93;;;0.93;;
7759;SDS011;3924;48.830;9.262;2022-08-20T00:59:25;1.00;;;0.77;;
7759;SDS011;3924;48.830;9.262;2022-08-20T01:01:53;0.80;;;0.80;;
7759;SDS011;3924;48.830;9.262;2022-08-20T01:04:23;1.73;;;0.80;;
7759;SDS011;3924;48.830;9.262;2022-08-20T01:06:51;0.90;;;0.90;;
7759;SDS011;3924;48.830;9.262;2022-08-20T01:09:18;1.03;;;0.97;;
7759;SDS011;3924;48.830;9.262;2022-08-20T01:12:05;1.43;;;0.87;;
7759;SDS011;3924;48.830;9.262;2022-08-20T01:14:32;6.50;;;0.80;;
7759;SDS011;3924;48.830;9.262;2022-08-20T01:17:00;0.73;;;0.73;;
7759;SDS011;3924;48.830;9.262;2022-08-20T01:19:36;0.80;;;0.80;;
7759;SDS011;3924;48.830;9.262;2022-08-20T01:22:06;0.70;;;0.70;;
7759;SDS011;3924;48.830;9.262;2022-08-20T01:24:56;1.27;;;0.70;;
7759;SDS011;3924;48.830;9.262;2022-08-20T01:27:30;0.77;;;0.77;;
7759;SDS011;3924;48.830;9.262;2022-08-20T01:30:00;0.83;;;0.70;;
7759;SDS011;3924;48.830;9.262;2022-08-20T01:32:31;0.83;;;0.83;;
7759;SDS011;3924;48.830;9.262;2022-08-20T01:34:58;0.73;;;0.73;;
7759;SDS011;3924;48.830;9.262;2022-08-20T01:37:25;0.60;;;0.60;;
7759;SDS011;3924;48.830;9.262;2022-08-20T01:39:56;0.80;;;0.80;;
7759;SDS011;3924;48.830;9.262;2022-08-20T01:42:26;2.33;;;0.70;;
7759;SDS011;3924;48.830;9.262;2022-08-20T01:45:19;1.30;;;0.70;;
7759;SDS011;3924;48.830;9.262;2022-08-20T01:47:52;0.70;;;0.70;;
7759;SDS011;3924;48.830;9.262;2022-08-20T01:50:23;1.23;;;0.93;;
7759;SDS011;3924;48.830;9.262;2022-08-20T01:53:05;0.70;;;0.70;;
7759;SDS011;3924;48.830;9.262;2022-08-20T01:55:40;1.53;;;0.83;;
7759;SDS011;3924;48.830;9.262;2022-08-20T01:58:06;0.73;;;0.73;;
7759;SDS011;3924;48.830;9.262;2022-08-20T02:00:33;2.33;;;0.80;;
7759;SDS011;3924;48.830;9.262;2022-08-20T02:03:00;0.70;;;0.70;;
7759;SDS011;3924;48.830;9.262;2022-08-20T02:05:34;0.80;;;0.80;;
7759;SDS011;3924;48.830;9.262;2022-08-20T02:08:01;0.80;;;0.80;;
7759;SDS011;3924;48.830;9.262;2022-08-20T02:10:28;0.70;;;0.70;;
7759;SDS011;3924;48.830;9.262;2022-08-20T02:12:57;0.63;;;0.63;;
7759;SDS011;3924;48.830;9.262;2022-08-20T02:15:25;0.70;;;0.70;;
7759;SDS011;3924;48.830;9.262;2022-08-20T02:18:04;0.70;;;0.70;;
7759;SDS011;3924;48.830;9.262;2022-08-20T02:20:33;0.67;;;0.67;;
7759;SDS011;3924;48.830;9.262;2022-08-20T02:23:00;2.40;;;0.80;;
7759;SDS011;3924;48.830;9.262;2022-08-20T02:25:31;2.30;;;1.00;;
7759;SDS011;3924;48.830;9.262;2022-08-20T02:28:01;0.90;;;0.90;;
7759;SDS011;3924;48.830;9.262;2022-08-20T02:30:35;0.70;;;0.70;;
7759;SDS011;3924;48.830;9.262;2022-08-20T02:33:06;0.90;;;0.90;;
7759;SDS011;3924;48.830;9.262;2022-08-20T02:35:34;0.80;;;0.80;;
7759;SDS011;3924;48.830;9.262;2022-08-20T02:38:02;2.00;;;1.00;;
7759;SDS011;3924;48.830;9.262;2022-08-20T02:40:29;2.43;;;0.70;;
7759;SDS011;3924;48.830;9.262;2022-08-20T02:42:59;0.77;;;0.77;;
7759;SDS011;3924;48.830;9.262;2022-08-20T02:45:28;0.67;;;0.67;;
7759;SDS011;3924;48.830;9.262;2022-08-20T02:47:56;0.70;;;0.70;;
7759;SDS011;3924;48.830;9.262;2022-08-20T02:50:25;0.60;;;0.60;;
7759;SDS011;3924;48.830;9.262;2022-08-20T02:52:52;0.90;;;0.90;;
7759;SDS011;3924;48.830;9.262;2022-08-20T02:55:19;1.00;;;0.80;;
7759;SDS011;3924;48.830;9.262;2022-08-20T02:57:56;0.70;;;0.70;;
7759;SDS011;3924;48.830;9.262;2022-08-20T03:00:25;0.70;;;0.70;;
7759;SDS011;3924;48.830;9.262;2022-08-20T03:03:03;1.30;;;1.10;;
7759;SDS011;3924;48.830;9.262;2022-08-20T03:05:30;0.80;;;0.80;;
7759;SDS011;3924;48.830;9.262;2022-08-20T03:07:56;0.90;;;0.90;;
7759;SDS011;3924;48.830;9.262;2022-08-20T03:10:31;0.70;;;0.70;;
7759;SDS011;3924;48.830;9.262;2022-08-20T03:12:59;0.70;;;0.70;;
7759;SDS011;3924;48.830;9.262;2022-08-20T03:15:31;0.87;;;0.87;;
7759;SDS011;3924;48.830;9.262;2022-08-20T03:17:59;1.20;;;0.90;;
7759;SDS011;3924;48.830;9.262;2022-08-20T03:20:26;0.90;;;0.90;;
7759;SDS011;3924;48.830;9.262;2022-08-20T03:22:53;0.80;;;0.80;;
7759;SDS011;3924;48.830;9.262;2022-08-20T03:25:19;1.10;;;1.00;;
7759;SDS011;3924;48.830;9.262;2022-08-20T03:27:47;0.60;;;0.60;;
7759;SDS011;3924;48.830;9.262;2022-08-20T03:30:19;0.87;;;0.87;;
7759;SDS011;3924;48.830;9.262;2022-08-20T03:32:47;1.80;;;1.10;;
7759;SDS011;3924;48.830;9.262;2022-08-20T03:35:14;0.63;;;0.63;;
7759;SDS011;3924;48.830;9.262;2022-08-20T03:37:42;1.00;;;0.87;;
7759;SDS011;3924;48.830;9.262;2022-08-20T03:40:16;0.90;;;0.90;;
7759;SDS011;3924;48.830;9.262;2022-08-20T03:42:48;3.13;;;1.00;;
7759;SDS011;3924;48.830;9.262;2022-08-20T03:45:14;0.97;;;0.97;;
7759;SDS011;3924;48.830;9.262;2022-08-20T03:47:45;0.80;;;0.80;;
7759;SDS011;3924;48.830;9.262;2022-08-20T03:50:12;1.00;;;1.00;;
7759;SDS011;3924;48.830;9.262;2022-08-20T03:52:48;3.87;;;0.97;;
7759;SDS011;3924;48.830;9.262;2022-08-20T03:55:16;1.30;;;1.10;;
7759;SDS011;3924;48.830;9.262;2022-08-20T03:57:46;0.90;;;0.90;;
7759;SDS011;3924;48.830;9.262;2022-08-20T04:00:15;3.87;;;1.27;;
7759;SDS011;3924;48.830;9.262;2022-08-20T04:02:46;1.30;;;1.20;;
7759;SDS011;3924;48.830;9.262;2022-08-20T04:05:13;2.13;;;1.07;;
7759;SDS011;3924;48.830;9.262;2022-08-20T04:07:40;0.70;;;0.70;;
7759;SDS011;3924;48.830;9.262;2022-08-20T04:10:09;1.00;;;1.00;;
7759;SDS011;3924;48.830;9.262;2022-08-20T04:12:36;2.87;;;0.97;;
7759;SDS011;3924;48.830;9.262;2022-08-20T04:15:17;2.40;;;1.10;;
7759;SDS011;3924;48.830;9.262;2022-08-20T04:17:45;1.20;;;1.20;;
7759;SDS011;3924;48.830;9.262;2022-08-20T04:20:15;1.77;;;1.67;;
7759;SDS011;3924;48.830;9.262;2022-08-20T04:22:50;1.20;;;1.10;;
7759;SDS011;3924;48.830;9.262;2022-08-20T04:25:25;1.83;;;1.60;;
7759;SDS011;3924;48.830;9.262;2022-08-20T04:27:55;1.40;;;1.30;;
7759;SDS011;3924;48.830;9.262;2022-08-20T04:30:23;1.20;;;1.20;;
7759;SDS011;3924;48.830;9.262;2022-08-20T04:32:50;1.23;;;1.23;;
7759;SDS011;3924;48.830;9.262;2022-08-20T04:35:17;1.67;;;1.13;;
7759;SDS011;3924;48.830;9.262;2022-08-20T04:37:44;1.07;;;1.07;;
7759;SDS011;3924;48.830;9.262;2022-08-20T04:40:14;1.10;;;1.10;;
7759;SDS011;3924;48.830;9.262;2022-08-20T04:43:01;1.20;;;1.20;;
7759;SDS011;3924;48.830;9.262;2022-08-20T04:45:32;1.53;;;1.43;;
7759;SDS011;3924;48.830;9.262;2022-08-20T04:48:03;2.00;;;1.80;;
7759;SDS011;3924;48.830;9.262;2022-08-20T04:50:32;3.97;;;2.20;;
7759;SDS011;3924;48.830;9.262;2022-08-20T04:53:04;1.50;;;1.40;;
7759;SDS011;3924;48.830;9.262;2022-08-20T04:55:33;1.47;;;1.37;;
7759;SDS011;3924;48.830;9.262;2022-08-20T04:58:02;2.13;;;1.10;;
7759;SDS011;3924;48.830;9.262;2022-08-20T05:00:32;1.43;;;1.33;;
7759;SDS011;3924;48.830;9.262;2022-08-20T05:02:59;2.97;;;1.40;;
7759;SDS011;3924;48.830;9.262;2022-08-20T05:05:26;1.50;;;1.20;;
7759;SDS011;3924;48.830;9.262;2022-08-20T05:07:53;2.00;;;1.60;;
7759;SDS011;3924;48.830;9.262;2022-08-20T05:10:20;1.43;;;1.43;;
7759;SDS011;3924;48.830;9.262;2022-08-20T05:12:48;1.77;;;1.67;;
7759;SDS011;3924;48.830;9.262;2022-08-20T05:15:22;1.80;;;1.70;;
7759;SDS011;3924;48.830;9.262;2022-08-20T05:17:52;1.93;;;1.83;;
7759;SDS011;3924;48.830;9.262;2022-08-20T05:20:21;2.00;;;1.80;;
7759;SDS011;3924;48.830;9.262;2022-08-20T05:22:48;1.87;;;1.77;;
7759;SDS011;3924;48.830;9.262;2022-08-20T05:25:14;1.70;;;1.60;;
7759;SDS011;3924;48.830;9.262;2022-08-20T05:27:41;8.40;;;1.90;;
7759;SDS011;3924;48.830;9.262;2022-08-20T05:30:13;1.60;;;1.50;;
7759;SDS011;3924;48.830;9.262;2022-08-20T05:32:40;3.30;;;1.70;;
7759;SDS011;3924;48.830;9.262;2022-08-20T05:35:09;2.60;;;2.40;;
7759;SDS011;3924;48.830;9.262;2022-08-20T05:37:38;2.87;;;2.50;;
7759;SDS011;3924;48.830;9.262;2022-08-20T05:40:07;2.40;;;2.30;;
7759;SDS011;3924;48.830;9.262;2022-08-20T05:42:39;4.07;;;2.73;;
7759;SDS011;3924;48.830;9.262;2022-08-20T05:45:06;2.80;;;2.53;;
7759;SDS011;3924;48.830;9.262;2022-08-20T05:47:37;2.77;;;2.40;;
7759;SDS011;3924;48.830;9.262;2022-08-20T05:50:09;2.90;;;2.70;;
7759;SDS011;3924;48.830;9.262;2022-08-20T05:52:48;3.07;;;2.87;;
7759;SDS011;3924;48.830;9.262;2022-08-20T05:55:15;3.57;;;2.80;;
7759;SDS011;3924;48.830;9.262;2022-08-20T05:57:42;2.93;;;2.63;;
7759;SDS011;3924;48.830;9.262;2022-08-20T06:00:09;3.07;;;2.77;;
7759;SDS011;3924;48.830;9.262;2022-08-20T06:02:39;2.97;;;2.60;;
7759;SDS011;3924;48.830;9.262;2022-08-20T06:05:24;3.87;;;3.37;;
7759;SDS011;3924;48.830;9.262;2022-08-20T06:07:51;3.97;;;3.40;;
7759;SDS011;3924;48.830;9.262;2022-08-20T06:10:30;3.20;;;2.50;;
7759;SDS011;3924;48.830;9.262;2022-08-20T06:12:57;3.10;;;2.90;;
7759;SDS011;3924;48.830;9.262;2022-08-20T06:15:24;3.57;;;2.80;;
7759;SDS011;3924;48.830;9.262;2022-08-20T06:17:50;3.13;;;2.83;;
7759;SDS011;3924;48.830;9.262;2022-08-20T06:20:23;4.30;;;2.77;;
7759;SDS011;3924;48.830;9.262;2022-08-20T06:22:51;5.93;;;2.50;;
7759;SDS011;3924;48.830;9.262;2022-08-20T06:25:17;3.97;;;2.73;;
7759;SDS011;3924;48.830;9.262;2022-08-20T06:27:44;6.03;;;2.80;;
7759;SDS011;3924;48.830;9.262;2022-08-20T06:30:11;3.07;;;2.87;;
7759;SDS011;3924;48.830;9.262;2022-08-20T06:32:39;2.60;;;2.40;;
7759;SDS011;3924;48.830;9.262;2022-08-20T06:35:07;2.57;;;2.30;;
7759;SDS011;3924;48.830;9.262;2022-08-20T06:37:36;3.73;;;2.50;;
7759;SDS011;3924;48.830;9.262;2022-08-20T06:40:09;2.80;;;2.60;;
7759;SDS011;3924;48.830;9.262;2022-08-20T06:42:44;2.60;;;2.40;;
7759;SDS011;3924;48.830;9.262;2022-08-20T06:45:18;2.90;;;2.60;;
7759;SDS011;3924;48.830;9.262;2022-08-20T06:47:49;5.90;;;2.70;;
7759;SDS011;3924;48.830;9.262;2022-08-20T06:50:18;4.90;;;2.70;;
7759;SDS011;3924;48.830;9.262;2022-08-20T06:52:47;4.40;;;2.30;;
7759;SDS011;3924;48.830;9.262;2022-08-20T06:55:18;4.93;;;2.60;;
7759;SDS011;3924;48.830;9.262;2022-08-20T06:57:45;2.87;;;2.67;;
7759;SDS011;3924;48.830;9.262;2022-08-20T07:00:15;4.13;;;2.63;;
7759;SDS011;3924;48.830;9.262;2022-08-20T07:02:43;2.90;;;2.70;;
7759;SDS011;3924;48.830;9.262;2022-08-20T07:05:12;4.53;;;2.93;;
7759;SDS011;3924;48.830;9.262;2022-08-20T07:07:42;3.63;;;2.37;;
7759;SDS011;3924;48.830;9.262;2022-08-20T07:10:11;3.33;;;2.20;;
7759;SDS011;3924;48.830;9.262;2022-08-20T07:12:39;3.27;;;2.50;;
7759;SDS011;3924;48.830;9.262;2022-08-20T07:15:06;2.53;;;2.33;;
7759;SDS011;3924;48.830;9.262;2022-08-20T07:17:34;2.77;;;2.57;;
7759;SDS011;3924;48.830;9.262;2022-08-20T07:20:03;2.43;;;2.23;;
7759;SDS011;3924;48.830;9.262;2022-08-20T07:22:31;4.50;;;2.70;;
7759;SDS011;3924;48.830;9.262;2022-08-20T07:25:00;3.00;;;2.80;;
7759;SDS011;3924;48.830;9.262;2022-08-20T07:27:28;3.77;;;2.97;;
7759;SDS011;3924;48.830;9.262;2022-08-20T07:29:54;3.40;;;2.80;;
7759;SDS011;3924;48.830;9.262;2022-08-20T07:32:40;3.43;;;3.03;;
7759;SDS011;3924;48.830;9.262;2022-08-20T07:35:11;3.53;;;3.00;;
7759;SDS011;3924;48.830;9.262;2022-08-20T07:37:40;2.97;;;2.73;;
7759;SDS011;3924;48.830;9.262;2022-08-20T07:40:13;3.33;;;3.03;;
7759;SDS011;3924;48.830;9.262;2022-08-20T07:42:41;3.13;;;2.93;;
7759;SDS011;3924;48.830;9.262;2022-08-20T07:45:08;2.80;;;2.60;;
7759;SDS011;3924;48.830;9.262;2022-08-20T07:47:37;5.70;;;3.20;;
7759;SDS011;3924;48.830;9.262;2022-08-20T07:50:05;4.23;;;2.93;;
7759;SDS011;3924;48.830;9.262;2022-08-20T07:52:33;6.47;;;2.57;;
7759;SDS011;3924;48.830;9.262;2022-08-20T07:55:04;2.93;;;2.43;;
7759;SDS011;3924;48.830;9.262;2022-08-20T07:57:32;3.00;;;2.80;;
7759;SDS011;3924;48.830;9.262;2022-08-20T07:59:59;4.17;;;3.07;;
7759;SDS011;3924;48.830;9.262;2022-08-20T08:02:28;3.67;;;2.67;;
7759;SDS011;3924;48.830;9.262;2022-08-20T08:04:54;3.23;;;2.93;;
7759;SDS011;3924;48.830;9.262;2022-08-20T08:07:22;9.73;;;3.10;;
7759;SDS011;3924;48.830;9.262;2022-08-20T08:09:50;3.47;;;3.17;;
7759;SDS011;3924;48.830;9.262;2022-08-20T08:12:16;6.80;;;2.90;;
7759;SDS011;3924;48.830;9.262;2022-08-20T08:14:43;3.10;;;2.80;;
7759;SDS011;3924;48.830;9.262;2022-08-20T08:17:12;3.50;;;3.30;;
7759;SDS011;3924;48.830;9.262;2022-08-20T08:19:43;6.47;;;2.90;;
7759;SDS011;3924;48.830;9.262;2022-08-20T08:22:16;4.07;;;3.17;;
7759;SDS011;3924;48.830;9.262;2022-08-20T08:24:44;5.97;;;3.03;;
7759;SDS011;3924;48.830;9.262;2022-08-20T08:27:22;3.07;;;2.70;;
7759;SDS011;3924;48.830;9.262;2022-08-20T08:29:49;4.23;;;3.23;;
7759;SDS011;3924;48.830;9.262;2022-08-20T08:32:16;3.00;;;2.70;;
7759;SDS011;3924;48.830;9.262;2022-08-20T08:34:42;3.57;;;2.83;;
7759;SDS011;3924;48.830;9.262;2022-08-20T08:37:13;6.03;;;2.90;;
7759;SDS011;3924;48.830;9.262;2022-08-20T08:39:39;2.83;;;2.63;;
7759;SDS011;3924;48.830;9.262;2022-08-20T08:42:15;3.77;;;2.80;;
7759;SDS011;3924;48.830;9.262;2022-08-20T08:44:51;3.33;;;3.10;;
7759;SDS011;3924;48.830;9.262;2022-08-20T08:47:38;2.00;;;1.90;;
7759;SDS011;3924;48.830;9.262;2022-08-20T08:50:06;3.00;;;2.73;;
7759;SDS011;3924;48.830;9.262;2022-08-20T08:52:39;5.63;;;2.47;;
7759;SDS011;3924;48.830;9.262;2022-08-20T08:55:08;3.93;;;2.60;;
7759;SDS011;3924;48.830;9.262;2022-08-20T08:57:41;4.33;;;2.97;;
7759;SDS011;3924;48.830;9.262;2022-08-20T09:00:08;3.10;;;2.77;;
7759;SDS011;3924;48.830;9.262;2022-08-20T09:03:04;2.07;;;1.97;;
7759;SDS011;3924;48.830;9.262;2022-08-20T09:05:39;3.07;;;2.80;;
7759;SDS011;3924;48.830;9.262;2022-08-20T09:08:11;4.50;;;3.47;;
7759;SDS011;3924;48.830;9.262;2022-08-20T09:10:42;3.40;;;3.10;;
7759;SDS011;3924;48.830;9.262;2022-08-20T09:13:10;3.47;;;2.97;;
7759;SDS011;3924;48.830;9.262;2022-08-20T09:15:37;4.83;;;2.50;;
7759;SDS011;3924;48.830;9.262;2022-08-20T09:18:04;2.03;;;1.90;;
7759;SDS011;3924;48.830;9.262;2022-08-20T09:20:30;2.60;;;2.40;;
7759;SDS011;3924;48.830;9.262;2022-08-20T09:22:57;2.13;;;1.97;;
7759;SDS011;3924;48.830;9.262;2022-08-20T09:25:23;2.83;;;2.17;;
7759;SDS011;3924;48.830;9.262;2022-08-20T09:27:50;2.30;;;2.20;;
7759;SDS011;3924;48.830;9.262;2022-08-20T09:30:17;2.23;;;2.13;;
7759;SDS011;3924;48.830;9.262;2022-08-20T09:32:43;1.77;;;1.37;;
7759;SDS011;3924;48.830;9.262;2022-08-20T09:35:11;1.90;;;1.80;;
7759;SDS011;3924;48.830;9.262;2022-08-20T09:37:38;1.77;;;1.67;;
7759;SDS011;3924;48.830;9.262;2022-08-20T09:40:05;1.70;;;1.60;;
7759;SDS011;3924;48.830;9.262;2022-08-20T09:42:34;3.03;;;1.73;;
7759;SDS011;3924;48.830;9.262;2022-08-20T09:45:06;1.47;;;1.43;;
7759;SDS011;3924;48.830;9.262;2022-08-20T09:47:36;1.40;;;1.30;;
7759;SDS011;3924;48.830;9.262;2022-08-20T09:50:08;1.80;;;1.40;;
7759;SDS011;3924;48.830;9.262;2022-08-20T09:52:43;1.40;;;1.30;;
7759;SDS011;3924;48.830;9.262;2022-08-20T09:57:42;1.40;;;1.30;;
7759;SDS011;3924;48.830;9.262;2022-08-20T10:00:09;1.60;;;1.50;;
7759;SDS011;3924;48.830;9.262;2022-08-20T10:02:45;1.70;;;1.60;;
7759;SDS011;3924;48.830;9.262;2022-08-20T10:05:12;1.67;;;1.07;;
7759;SDS011;3924;48.830;9.262;2022-08-20T10:07:39;1.50;;;1.40;;
7759;SDS011;3924;48.830;9.262;2022-08-20T10:10:07;2.80;;;1.43;;
7759;SDS011;3924;48.830;9.262;2022-08-20T10:12:35;1.70;;;1.40;;
7759;SDS011;3924;48.830;9.262;2022-08-20T10:15:02;1.17;;;1.10;;
7759;SDS011;3924;48.830;9.262;2022-08-20T10:17:29;1.77;;;1.40;;
7759;SDS011;3924;48.830;9.262;2022-08-20T10:19:55;3.20;;;1.47;;
7759;SDS011;3924;48.830;9.262;2022-08-20T10:22:22;1.57;;;1.33;;
7759;SDS011;3924;48.830;9.262;2022-08-20T10:24:49;1.33;;;1.23;;
7759;SDS011;3924;48.830;9.262;2022-08-20T10:27:15;3.43;;;1.70;;
7759;SDS011;3924;48.830;9.262;2022-08-20T10:29:42;2.37;;;1.80;;
7759;SDS011;3924;48.830;9.262;2022-08-20T10:32:13;2.63;;;1.70;;
7759;SDS011;3924;48.830;9.262;2022-08-20T10:34:40;1.90;;;1.80;;
7759;SDS011;3924;48.830;9.262;2022-08-20T10:37:12;2.23;;;1.40;;
7759;SDS011;3924;48.830;9.262;2022-08-20T10:39:40;5.47;;;2.23;;
7759;SDS011;3924;48.830;9.262;2022-08-20T10:42:07;6.47;;;1.83;;
7759;SDS011;3924;48.830;9.262;2022-08-20T10:44:33;10.83;;;1.73;;
7759;SDS011;3924;48.830;9.262;2022-08-20T10:50:03;3.60;;;1.40;;
7759;SDS011;3924;48.830;9.262;2022-08-20T10:52:31;6.30;;;2.30;;
7759;SDS011;3924;48.830;9.262;2022-08-20T10:54:58;2.30;;;1.53;;
7759;SDS011;3924;48.830;9.262;2022-08-20T10:57:25;4.00;;;1.10;;
7759;SDS011;3924;48.830;9.262;2022-08-20T10:59:54;3.60;;;1.80;;
7759;SDS011;3924;48.830;9.262;2022-08-20T11:02:22;2.93;;;1.60;;
7759;SDS011;3924;48.830;9.262;2022-08-20T11:04:50;3.40;;;1.60;;
7759;SDS011;3924;48.830;9.262;2022-08-20T11:07:24;1.80;;;1.70;;
7759;SDS011;3924;48.830;9.262;2022-08-20T11:10:14;1.00;;;1.00;;
7759;SDS011;3924;48.830;9.262;2022-08-20T11:12:43;0.63;;;0.63;;
7759;SDS011;3924;48.830;9.262;2022-08-20T11:15:11;3.13;;;0.70;;
7759;SDS011;3924;48.830;9.262;2022-08-20T11:17:39;1.33;;;0.80;;
7759;SDS011;3924;48.830;9.262;2022-08-20T11:20:08;0.60;;;0.60;;
7759;SDS011;3924;48.830;9.262;2022-08-20T11:22:36;0.60;;;0.60;;
7759;SDS011;3924;48.830;9.262;2022-08-20T11:25:04;1.17;;;0.50;;
7759;SDS011;3924;48.830;9.262;2022-08-20T11:27:32;0.70;;;0.70;;
7759;SDS011;3924;48.830;9.262;2022-08-20T11:30:00;1.00;;;0.90;;
7759;SDS011;3924;48.830;9.262;2022-08-20T11:32:27;0.80;;;0.80;;
7759;SDS011;3924;48.830;9.262;2022-08-20T11:34:54;0.63;;;0.63;;
7759;SDS011;3924;48.830;9.262;2022-08-20T11:37:21;0.80;;;0.80;;
7759;SDS011;3924;48.830;9.262;2022-08-20T11:39:49;0.90;;;0.90;;
7759;SDS011;3924;48.830;9.262;2022-08-20T11:42:17;0.60;;;0.60;;
7759;SDS011;3924;48.830;9.262;2022-08-20T11:44:43;0.87;;;0.87;;
7759;SDS011;3924;48.830;9.262;2022-08-20T11:47:18;2.20;;;0.80;;
7759;SDS011;3924;48.830;9.262;2022-08-20T11:49:54;0.60;;;0.60;;
7759;SDS011;3924;48.830;9.262;2022-08-20T11:52:22;0.50;;;0.50;;
7759;SDS011;3924;48.830;9.262;2022-08-20T11:54:50;1.03;;;0.70;;
7759;SDS011;3924;48.830;9.262;2022-08-20T11:57:20;0.60;;;0.60;;
7759;SDS011;3924;48.830;9.262;2022-08-20T11:59:57;3.37;;;0.60;;
7759;SDS011;3924;48.830;9.262;2022-08-20T12:02:25;1.43;;;0.60;;
7759;SDS011;3924;48.830;9.262;2022-08-20T12:04:55;0.50;;;0.50;;
7759;SDS011;3924;48.830;9.262;2022-08-20T12:07:22;0.97;;;0.60;;
7759;SDS011;3924;48.830;9.262;2022-08-20T12:09:50;2.47;;;0.50;;
7759;SDS011;3924;48.830;9.262;2022-08-20T12:12:17;0.70;;;0.70;;
7759;SDS011;3924;48.830;9.262;2022-08-20T12:14:45;0.70;;;0.70;;
7759;SDS011;3924;48.830;9.262;2022-08-20T12:17:20;0.63;;;0.63;;
7759;SDS011;3924;48.830;9.262;2022-08-20T12:19:58;1.27;;;0.77;;
7759;SDS011;3924;48.830;9.262;2022-08-20T12:22:27;4.17;;;0.57;;
7759;SDS011;3924;48.830;9.262;2022-08-20T12:24:54;0.70;;;0.70;;
7759;SDS011;3924;48.830;9.262;2022-08-20T12:27:22;1.30;;;0.43;;
7759;SDS011;3924;48.830;9.262;2022-08-20T12:29:53;0.70;;;0.60;;
7759;SDS011;3924;48.830;9.262;2022-08-20T12:32:21;0.70;;;0.70;;
7759;SDS011;3924;48.830;9.262;2022-08-20T12:34:49;0.80;;;0.80;;
7759;SDS011;3924;48.830;9.262;2022-08-20T12:37:18;0.97;;;0.77;;
7759;SDS011;3924;48.830;9.262;2022-08-20T12:39:49;1.53;;;1.23;;
7759;SDS011;3924;48.830;9.262;2022-08-20T12:42:18;1.67;;;1.10;;
7759;SDS011;3924;48.830;9.262;2022-08-20T12:44:45;2.77;;;1.40;;
7759;SDS011;3924;48.830;9.262;2022-08-20T12:47:16;3.77;;;1.33;;
7759;SDS011;3924;48.830;9.262;2022-08-20T12:49:45;1.50;;;1.40;;
7759;SDS011;3924;48.830;9.262;2022-08-20T12:52:15;1.70;;;1.33;;
7759;SDS011;3924;48.830;9.262;2022-08-20T12:54:43;2.30;;;1.33;;
7759;SDS011;3924;48.830;9.262;2022-08-20T12:57:30;2.33;;;1.40;;
7759;SDS011;3924;48.830;9.262;2022-08-20T13:00:00;1.30;;;1.20;;
7759;SDS011;3924;48.830;9.262;2022-08-20T13:02:46;1.10;;;1.00;;
7759;SDS011;3924;48.830;9.262;2022-08-20T13:05:13;1.17;;;0.90;;
7759;SDS011;3924;48.830;9.262;2022-08-20T13:07:41;8.70;;;1.60;;
7759;SDS011;3924;48.830;9.262;2022-08-20T13:10:12;6.53;;;2.00;;
7759;SDS011;3924;48.830;9.262;2022-08-20T13:12:49;6.17;;;1.40;;
7759;SDS011;3924;48.830;9.262;2022-08-20T13:15:16;1.37;;;0.90;;
7759;SDS011;3924;48.830;9.262;2022-08-20T13:17:45;2.00;;;1.00;;
7759;SDS011;3924;48.830;9.262;2022-08-20T13:20:16;6.47;;;1.43;;
7759;SDS011;3924;48.830;9.262;2022-08-20T13:22:43;3.40;;;1.67;;
7759;SDS011;3924;48.830;9.262;2022-08-20T13:25:10;1.13;;;0.80;;
7759;SDS011;3924;48.830;9.262;2022-08-20T13:27:41;1.47;;;0.90;;
7759;SDS011;3924;48.830;9.262;2022-08-20T13:30:11;1.53;;;0.80;;
7759;SDS011;3924;48.830;9.262;2022-08-20T13:32:39;0.63;;;0.60;;
7759;SDS011;3924;48.830;9.262;2022-08-20T13:35:07;0.77;;;0.73;;
7759;SDS011;3924;48.830;9.262;2022-08-20T13:37:34;0.70;;;0.70;;
7759;SDS011;3924;48.830;9.262;2022-08-20T13:40:01;1.17;;;0.70;;
7759;SDS011;3924;48.830;9.262;2022-08-20T13:42:29;1.43;;;0.83;;
7759;SDS011;3924;48.830;9.262;2022-08-20T13:44:55;0.60;;;0.60;;
7759;SDS011;3924;48.830;9.262;2022-08-20T13:49:54;0.80;;;0.63;;
7759;SDS011;3924;48.830;9.262;2022-08-20T13:52:26;0.70;;;0.70;;
7759;SDS011;3924;48.830;9.262;2022-08-20T13:54:52;0.60;;;0.60;;
7759;SDS011;3924;48.830;9.262;2022-08-20T13:57:19;1.57;;;0.80;;
7759;SDS011;3924;48.830;9.262;2022-08-20T13:59:48;1.40;;;0.73;;
7759;SDS011;3924;48.830;9.262;2022-08-20T14:02:17;0.80;;;0.80;;
7759;SDS011;3924;48.830;9.262;2022-08-20T14:04:44;1.00;;;1.00;;
7759;SDS011;3924;48.830;9.262;2022-08-20T14:07:18;1.80;;;0.70;;
7759;SDS011;3924;48.830;9.262;2022-08-20T14:09:48;3.93;;;0.90;;
7759;SDS011;3924;48.830;9.262;2022-08-20T14:12:19;2.50;;;0.70;;
7759;SDS011;3924;48.830;9.262;2022-08-20T14:14:48;0.80;;;0.80;;
7759;SDS011;3924;48.830;9.262;2022-08-20T14:17:20;1.00;;;1.00;;
7759;SDS011;3924;48.830;9.262;2022-08-20T14:19:55;2.93;;;0.70;;
7759;SDS011;3924;48.830;9.262;2022-08-20T14:22:27;0.93;;;0.80;;
7759;SDS011;3924;48.830;9.262;2022-08-20T14:24:55;0.80;;;0.80;;
7759;SDS011;3924;48.830;9.262;2022-08-20T14:27:22;0.80;;;0.80;;
7759;SDS011;3924;48.830;9.262;2022-08-20T14:29:54;1.80;;;1.00;;
7759;SDS011;3924;48.830;9.262;2022-08-20T14:32:21;0.90;;;0.90;;
7759;SDS011;3924;48.830;9.262;2022-08-20T14:34:48;1.00;;;1.00;;
7759;SDS011;3924;48.830;9.262;2022-08-20T14:37:15;0.90;;;0.90;;
7759;SDS011;3924;48.830;9.262;2022-08-20T14:39:43;2.77;;;0.90;;
7759;SDS011;3924;48.830;9.262;2022-08-20T14:42:13;1.00;;;1.00;;
7759;SDS011;3924;48.830;9.262;2022-08-20T14:44:39;0.87;;;0.87;;
7759;SDS011;3924;48.830;9.262;2022-08-20T14:49:42;0.80;;;0.80;;
7759;SDS011;3924;48.830;9.262;2022-08-20T14:52:10;0.93;;;0.93;;
7759;SDS011;3924;48.830;9.262;2022-08-20T14:54:37;1.30;;;1.30;;
7759;SDS011;3924;48.830;9.262;2022-08-20T14:57:05;1.03;;;0.97;;
7759;SDS011;3924;48.830;9.262;2022-08-20T14:59:38;1.00;;;1.00;;
7759;SDS011;3924;48.830;9.262;2022-08-20T15:02:06;3.67;;;0.90;;
7759;SDS011;3924;48.830;9.262;2022-08-20T15:04:35;1.00;;;1.00;;
7759;SDS011;3924;48.830;9.262;2022-08-20T15:07:02;0.97;;;0.97;;
7759;SDS011;3924;48.830;9.262;2022-08-20T15:09:38;0.80;;;0.80;;
7759;SDS011;3924;48.830;9.262;2022-08-20T15:12:05;1.20;;;1.00;;
7759;SDS011;3924;48.830;9.262;2022-08-20T15:14:31;1.10;;;1.00;;
7759;SDS011;3924;48.830;9.262;2022-08-20T15:16:58;0.93;;;0.90;;
7759;SDS011;3924;48.830;9.262;2022-08-20T15:19:25;0.77;;;0.77;;
7759;SDS011;3924;48.830;9.262;2022-08-20T15:21:51;1.80;;;1.17;;
7759;SDS011;3924;48.830;9.262;2022-08-20T15:24:18;1.37;;;1.03;;
7759;SDS011;3924;48.830;9.262;2022-08-20T15:26:45;1.00;;;1.00;;
7759;SDS011;3924;48.830;9.262;2022-08-20T15:29:12;0.83;;;0.83;;
7759;SDS011;3924;48.830;9.262;2022-08-20T15:31:48;0.80;;;0.80;;
7759;SDS011;3924;48.830;9.262;2022-08-20T15:34:15;0.93;;;0.93;;
7759;SDS011;3924;48.830;9.262;2022-08-20T15:36:43;2.27;;;1.20;;
7759;SDS011;3924;48.830;9.262;2022-08-20T15:39:09;2.77;;;1.10;;
7759;SDS011;3924;48.830;9.262;2022-08-20T15:41:36;0.97;;;0.90;;
7759;SDS011;3924;48.830;9.262;2022-08-20T15:44:03;0.83;;;0.83;;